createdAt,value
2018-07-05T00:00:52.474Z,62.08
2018-07-05T00:01:52.613Z,62.37
2018-07-05T00:02:52.756Z,61.89
2018-07-05T00:03:52.895Z,62.18
2018-07-05T00:04:53.046Z,61.99
2018-07-05T00:05:53.190Z,62.18
2018-07-05T00:06:53.327Z,62.28
2018-07-05T00:07:53.463Z,62.08
2018-07-05T00:08:53.614Z,62.18
2018-07-05T00:09:53.754Z,62.08
2018-07-05T00:10:53.895Z,62.08
2018-07-05T00:11:54.038Z,62.28
2018-07-05T00:12:54.185Z,62.28
2018-07-05T00:13:54.323Z,61.89
2018-07-05T00:14:54.452Z,62.08
2018-07-05T00:15:54.591Z,62.28
2018-07-05T00:16:54.749Z,62.18
2018-07-05T00:17:54.868Z,62.37
2018-07-05T00:18:55.024Z,62.28
2018-07-05T00:19:55.165Z,62.37
2018-07-05T00:20:55.308Z,62.47
2018-07-05T00:21:55.458Z,63.34
2018-07-05T00:22:55.599Z,62.37
2018-07-05T00:23:55.740Z,62.63
2018-07-05T00:24:55.880Z,62.37
2018-07-05T00:25:56.025Z,62.44
2018-07-05T00:26:56.165Z,63.12
2018-07-05T00:27:56.306Z,62.92
2018-07-05T00:28:56.458Z,62.44
2018-07-05T00:29:56.604Z,63.12
2018-07-05T00:30:57.552Z,63.31
2018-07-05T00:31:56.898Z,62.92
2018-07-05T00:32:57.060Z,63.50
2018-07-05T00:33:57.278Z,63.21
2018-07-05T00:34:57.306Z,63.12
2018-07-05T00:35:58.074Z,62.73
2018-07-05T00:36:57.619Z,62.82
2018-07-05T00:37:57.769Z,62.92
2018-07-05T00:38:57.918Z,63.12
2018-07-05T00:39:58.053Z,63.31
2018-07-05T00:40:58.232Z,63.21
2018-07-05T00:41:58.336Z,62.82
2018-07-05T00:42:58.474Z,63.12
2018-07-05T00:43:58.616Z,62.73
2018-07-05T00:44:58.758Z,62.92
2018-07-05T00:45:58.909Z,63.79
2018-07-05T00:46:59.041Z,63.50
2018-07-05T00:47:59.194Z,63.60
2018-07-05T00:48:59.344Z,63.98
2018-07-05T00:49:59.472Z,63.50
2018-07-05T00:50:59.610Z,63.67
2018-07-05T00:51:59.758Z,63.50
2018-07-05T00:52:59.888Z,64.05
2018-07-05T00:54:00.026Z,63.95
2018-07-05T00:55:00.166Z,63.47
2018-07-05T00:56:00.313Z,63.67
2018-07-05T00:57:00.457Z,63.57
2018-07-05T00:58:00.598Z,64.15
2018-07-05T00:59:00.745Z,64.72
2018-07-05T01:00:00.887Z,64.82
2018-07-05T01:01:01.030Z,64.43
2018-07-05T01:02:01.168Z,64.34
2018-07-05T01:03:01.306Z,64.63
2018-07-05T01:04:01.460Z,64.53
2018-07-05T01:05:01.598Z,64.92
2018-07-05T01:06:01.753Z,65.11
2018-07-05T01:07:01.875Z,65.30
2018-07-05T01:08:02.013Z,65.11
2018-07-05T01:09:02.158Z,65.30
2018-07-05T01:10:02.302Z,65.78
2018-07-05T01:11:02.442Z,65.69
2018-07-05T01:12:02.597Z,65.69
2018-07-05T01:13:02.734Z,65.40
2018-07-05T01:14:02.876Z,65.30
2018-07-05T01:15:03.016Z,65.20
2018-07-05T01:16:03.159Z,65.50
2018-07-05T01:17:03.300Z,65.47
2018-07-05T01:18:03.444Z,65.40
2018-07-05T01:19:03.595Z,65.20
2018-07-05T01:20:03.731Z,65.40
2018-07-05T01:21:03.869Z,65.30
2018-07-05T01:22:04.004Z,65.98
2018-07-05T01:23:04.227Z,65.78
2018-07-05T01:24:04.352Z,65.69
2018-07-05T01:25:04.500Z,65.30
2018-07-05T01:26:04.660Z,65.69
2018-07-05T01:27:04.810Z,65.40
2018-07-05T01:28:04.962Z,65.69
2018-07-05T01:29:05.111Z,65.20
2018-07-05T01:30:05.246Z,66.08
2018-07-05T01:31:05.385Z,65.95
2018-07-05T01:32:05.531Z,65.27
2018-07-05T01:33:05.686Z,66.04
2018-07-05T01:34:05.818Z,66.04
2018-07-05T01:35:05.956Z,66.14
2018-07-05T01:36:06.107Z,65.56
2018-07-05T01:37:06.278Z,65.66
2018-07-05T01:38:06.417Z,66.24
2018-07-05T01:39:06.559Z,66.24
2018-07-05T01:40:06.702Z,66.33
2018-07-05T01:41:06.884Z,65.56
2018-07-05T01:42:07.059Z,65.95
2018-07-05T01:43:07.073Z,65.95
2018-07-05T01:44:07.208Z,66.14
2018-07-05T01:45:07.357Z,66.52
2018-07-05T01:46:07.597Z,66.33
2018-07-05T01:47:07.606Z,66.33
2018-07-05T01:48:07.755Z,66.24
2018-07-05T01:49:07.907Z,66.43
2018-07-05T01:50:08.042Z,66.43
2018-07-05T01:51:08.183Z,66.43
2018-07-05T01:52:08.328Z,66.52
2018-07-05T01:53:08.472Z,66.43
2018-07-05T01:54:08.609Z,66.33
2018-07-05T01:55:08.749Z,66.24
2018-07-05T01:56:08.898Z,66.72
2018-07-05T01:57:09.079Z,66.52
2018-07-05T01:58:09.219Z,66.49
2018-07-05T01:59:09.357Z,66.59
2018-07-05T02:00:09.494Z,67.55
2018-07-05T02:01:09.668Z,68.71
2018-07-05T02:02:09.786Z,68.96
2018-07-05T02:03:09.925Z,69.83
2018-07-05T02:04:10.066Z,69.93
2018-07-05T02:05:10.244Z,69.73
2018-07-05T02:06:10.357Z,69.93
2018-07-05T02:07:10.560Z,70.41
2018-07-05T02:08:10.678Z,70.02
2018-07-05T02:09:10.817Z,70.41
2018-07-05T02:10:10.973Z,70.50
2018-07-05T02:11:11.159Z,69.83
2018-07-05T02:12:11.267Z,69.45
2018-07-05T02:13:11.430Z,69.73
2018-07-05T02:14:11.574Z,69.83
2018-07-05T02:15:11.719Z,69.64
2018-07-05T02:16:11.850Z,69.64
2018-07-05T02:17:11.997Z,69.83
2018-07-05T02:18:12.139Z,69.64
2018-07-05T02:19:12.314Z,70.12
2018-07-05T02:20:12.437Z,70.12
2018-07-05T02:21:12.574Z,70.41
2018-07-05T02:22:12.705Z,70.41
2018-07-05T02:23:12.961Z,70.31
2018-07-05T02:24:12.979Z,70.41
2018-07-05T02:25:13.116Z,70.21
2018-07-05T02:26:13.262Z,70.60
2018-07-05T02:27:13.508Z,70.31
2018-07-05T02:28:13.513Z,70.60
2018-07-05T02:29:13.656Z,70.21
2018-07-05T02:30:13.820Z,70.21
2018-07-05T02:31:13.949Z,70.02
2018-07-05T02:32:14.089Z,69.73
2018-07-05T02:33:14.243Z,69.73
2018-07-05T02:34:14.379Z,70.02
2018-07-05T02:35:14.521Z,69.83
2018-07-05T02:36:14.666Z,69.64
2018-07-05T02:37:14.836Z,69.73
2018-07-05T02:38:14.970Z,69.83
2018-07-05T02:39:15.113Z,69.64
2018-07-05T02:40:15.257Z,69.93
2018-07-05T02:41:15.445Z,69.93
2018-07-05T02:42:15.588Z,69.35
2018-07-05T02:43:15.732Z,69.83
2018-07-05T02:44:15.869Z,69.54
2018-07-05T02:45:16.023Z,69.64
2018-07-05T02:46:16.193Z,69.93
2018-07-05T02:47:16.329Z,69.54
2018-07-05T02:48:16.479Z,69.73
2018-07-05T02:49:16.625Z,69.73
2018-07-05T02:50:16.761Z,69.54
2018-07-05T02:51:16.906Z,69.93
2018-07-05T02:52:17.048Z,69.83
2018-07-05T02:53:17.213Z,69.15
2018-07-05T02:54:17.369Z,69.45
2018-07-05T02:55:17.507Z,69.73
2018-07-05T02:56:17.651Z,69.93
2018-07-05T02:57:17.814Z,69.83
2018-07-05T02:58:17.953Z,69.93
2018-07-05T02:59:18.100Z,69.45
2018-07-05T03:00:18.239Z,69.54
2018-07-05T03:01:18.405Z,69.35
2018-07-05T03:02:18.647Z,69.45
2018-07-05T03:03:18.661Z,69.15
2018-07-05T03:04:18.807Z,69.15
2018-07-05T03:05:18.949Z,69.25
2018-07-05T03:06:19.086Z,69.54
2018-07-05T03:07:19.233Z,69.15
2018-07-05T03:08:19.386Z,69.06
2018-07-05T03:09:19.516Z,69.15
2018-07-05T03:10:19.654Z,69.35
2018-07-05T03:11:19.791Z,69.06
2018-07-05T03:12:19.965Z,68.87
2018-07-05T03:13:20.110Z,69.06
2018-07-05T03:14:20.245Z,68.87
2018-07-05T03:15:20.405Z,68.87
2018-07-05T03:16:20.591Z,69.25
2018-07-05T03:17:20.726Z,69.06
2018-07-05T03:18:20.866Z,69.15
2018-07-05T03:19:21.036Z,69.93
2018-07-05T03:20:21.173Z,70.02
2018-07-05T03:21:21.316Z,69.70
2018-07-05T03:22:21.451Z,69.93
2018-07-05T03:23:21.614Z,69.73
2018-07-05T03:24:21.757Z,69.83
2018-07-05T03:25:21.891Z,70.18
2018-07-05T03:26:22.033Z,69.93
2018-07-05T03:27:22.195Z,69.83
2018-07-05T03:28:22.327Z,69.70
2018-07-05T03:29:22.470Z,69.83
2018-07-05T03:30:22.610Z,69.89
2018-07-05T03:31:22.748Z,69.79
2018-07-05T03:32:22.892Z,69.70
2018-07-05T03:33:23.028Z,69.83
2018-07-05T03:34:23.166Z,69.93
2018-07-05T03:35:23.338Z,69.99
2018-07-05T03:36:23.473Z,69.99
2018-07-05T03:37:23.619Z,69.99
2018-07-05T03:38:23.755Z,70.21
2018-07-05T03:39:23.950Z,69.99
2018-07-05T03:40:24.062Z,70.18
2018-07-05T03:41:24.217Z,69.99
2018-07-05T03:42:24.366Z,70.37
2018-07-05T03:43:24.519Z,70.37
2018-07-05T03:44:24.654Z,70.28
2018-07-05T03:45:24.797Z,70.66
2018-07-05T03:46:24.951Z,69.99
2018-07-05T03:47:25.196Z,70.09
2018-07-05T03:48:25.213Z,70.09
2018-07-05T03:49:25.369Z,69.99
2018-07-05T03:50:25.527Z,69.89
2018-07-05T03:51:25.735Z,70.47
2018-07-05T03:52:25.752Z,70.47
2018-07-05T03:53:25.889Z,70.47
2018-07-05T03:54:26.061Z,70.47
2018-07-05T03:55:26.194Z,70.47
2018-07-05T03:56:26.331Z,70.47
2018-07-05T03:57:26.472Z,70.76
2018-07-05T03:58:26.624Z,70.09
2018-07-05T03:59:26.766Z,70.18
2018-07-05T04:00:26.907Z,70.56
2018-07-05T04:01:27.055Z,70.37
2018-07-05T04:02:27.286Z,70.66
2018-07-05T04:03:27.304Z,70.76
2018-07-05T04:04:27.497Z,71.43
2018-07-05T04:05:27.614Z,70.95
2018-07-05T04:06:27.748Z,71.62
2018-07-05T04:07:27.885Z,71.43
2018-07-05T04:08:28.022Z,71.34
2018-07-05T04:09:28.162Z,71.43
2018-07-05T04:10:28.302Z,71.43
2018-07-05T04:11:28.439Z,72.01
2018-07-05T04:12:28.603Z,72.68
2018-07-05T04:13:28.739Z,72.01
2018-07-05T04:14:28.879Z,73.03
2018-07-05T04:15:29.019Z,73.22
2018-07-05T04:16:29.161Z,73.99
2018-07-05T04:17:29.306Z,73.80
2018-07-05T04:18:29.445Z,74.09
2018-07-05T04:19:29.586Z,73.42
2018-07-05T04:20:29.746Z,73.13
2018-07-05T04:21:29.883Z,73.61
2018-07-05T04:22:30.030Z,73.80
2018-07-05T04:23:30.167Z,73.99
2018-07-05T04:24:30.313Z,74.19
2018-07-05T04:25:30.447Z,73.90
2018-07-05T04:26:30.587Z,73.13
2018-07-05T04:27:30.729Z,73.22
2018-07-05T04:28:30.870Z,73.03
2018-07-05T04:29:31.017Z,72.59
2018-07-05T04:30:31.158Z,72.39
2018-07-05T04:31:31.303Z,72.01
2018-07-05T04:32:31.438Z,72.39
2018-07-05T04:33:31.575Z,72.20
2018-07-05T04:34:31.714Z,72.39
2018-07-05T04:35:31.852Z,72.39
2018-07-05T04:36:31.996Z,72.68
2018-07-05T04:37:32.143Z,72.49
2018-07-05T04:38:32.283Z,72.30
2018-07-05T04:39:33.257Z,73.16
2018-07-05T04:40:32.539Z,72.49
2018-07-05T04:41:32.675Z,73.16
2018-07-05T04:42:32.840Z,73.07
2018-07-05T04:43:32.976Z,73.16
2018-07-05T04:44:33.116Z,72.94
2018-07-05T04:45:33.261Z,72.97
2018-07-05T04:46:33.406Z,73.99
2018-07-05T04:47:33.542Z,73.99
2018-07-05T04:48:33.678Z,74.86
2018-07-05T04:49:33.820Z,74.76
2018-07-05T04:50:33.965Z,74.86
2018-07-05T04:51:34.097Z,75.15
2018-07-05T04:52:34.238Z,74.48
2018-07-05T04:53:34.379Z,74.86
2018-07-05T04:54:34.524Z,74.86
2018-07-05T04:55:34.761Z,75.54
2018-07-05T04:56:34.816Z,75.44
2018-07-05T04:57:34.956Z,75.92
2018-07-05T04:58:35.115Z,76.11
2018-07-05T05:01:07.818Z,76.40
2018-07-05T05:02:07.961Z,76.40
2018-07-05T05:03:08.101Z,76.56
2018-07-05T05:04:08.242Z,77.81
2018-07-05T05:05:08.398Z,77.08
2018-07-05T05:06:08.537Z,77.71
2018-07-05T05:07:08.679Z,77.61
2018-07-05T05:08:08.821Z,77.51
2018-07-05T05:09:08.961Z,77.42
2018-07-05T05:10:09.101Z,77.42
2018-07-05T05:11:09.242Z,78.58
2018-07-05T05:12:09.381Z,77.90
2018-07-05T05:13:09.519Z,78.77
2018-07-05T05:14:09.668Z,78.77
2018-07-05T05:15:09.815Z,78.09
2018-07-05T05:16:09.962Z,77.75
2018-07-05T05:17:10.098Z,77.56
2018-07-05T05:18:10.235Z,76.88
2018-07-05T05:19:10.374Z,76.50
2018-07-05T05:20:10.514Z,76.40
2018-07-05T05:21:10.655Z,76.21
2018-07-05T05:22:10.792Z,76.50
2018-07-05T05:23:10.932Z,76.59
2018-07-05T05:24:11.097Z,77.36
2018-07-05T05:25:11.228Z,77.46
2018-07-05T05:26:11.417Z,77.26
2018-07-05T05:27:11.513Z,77.36
2018-07-05T05:28:11.650Z,77.65
2018-07-05T05:29:11.780Z,77.65
2018-07-05T05:30:11.917Z,78.03
2018-07-05T05:31:12.061Z,77.84
2018-07-05T05:32:12.221Z,77.88
2018-07-05T05:33:12.355Z,77.75
2018-07-05T05:34:12.500Z,77.59
2018-07-05T05:35:12.646Z,77.59
2018-07-05T05:36:12.815Z,78.65
2018-07-05T05:37:12.943Z,78.81
2018-07-05T05:38:13.087Z,78.33
2018-07-05T05:39:13.230Z,78.27
2018-07-05T05:40:13.387Z,78.94
2018-07-05T05:41:13.527Z,78.52
2018-07-05T05:42:13.669Z,78.52
2018-07-05T05:43:13.807Z,78.71
2018-07-05T05:44:13.960Z,78.33
2018-07-05T05:45:14.101Z,78.85
2018-07-05T05:46:14.234Z,78.36
2018-07-05T05:47:14.375Z,77.78
2018-07-05T05:48:14.596Z,77.92
2018-07-05T05:49:14.741Z,77.44
2018-07-05T05:50:14.756Z,76.76
2018-07-05T05:51:14.897Z,76.96
2018-07-05T05:52:15.071Z,76.57
2018-07-05T05:53:15.197Z,76.76
2018-07-05T05:54:15.338Z,76.32
2018-07-05T05:55:15.485Z,76.13
2018-07-05T05:56:15.641Z,76.80
2018-07-05T05:57:15.781Z,76.42
2018-07-05T05:58:15.919Z,76.42
2018-07-05T05:59:16.062Z,76.42
2018-07-05T06:00:16.189Z,76.51
2018-07-05T06:01:16.323Z,76.23
2018-07-05T06:02:16.464Z,76.13
2018-07-05T06:03:16.608Z,76.17
2018-07-05T06:04:16.783Z,77.00
2018-07-05T06:05:16.911Z,77.09
2018-07-05T06:06:17.055Z,77.00
2018-07-05T06:07:17.195Z,77.67
2018-07-05T06:08:17.395Z,77.86
2018-07-05T06:09:17.490Z,78.06
2018-07-05T06:10:17.630Z,77.38
2018-07-05T06:11:17.780Z,77.48
2018-07-05T06:12:17.933Z,77.38
2018-07-05T06:13:18.071Z,77.19
2018-07-05T06:14:18.216Z,76.36
2018-07-05T06:15:18.446Z,76.36
2018-07-05T06:16:18.496Z,76.55
2018-07-05T06:17:18.641Z,76.26
2018-07-05T06:18:18.802Z,76.65
2018-07-05T06:19:18.938Z,76.26
2018-07-05T06:20:19.079Z,76.26
2018-07-05T06:21:19.217Z,76.59
2018-07-05T06:22:19.371Z,76.36
2018-07-05T06:23:19.512Z,75.62
2018-07-05T06:24:19.656Z,75.62
2018-07-05T06:25:19.815Z,75.62
2018-07-05T06:26:19.957Z,75.34
2018-07-05T06:27:20.105Z,76.30
2018-07-05T06:28:20.243Z,76.10
2018-07-05T06:29:20.397Z,75.62
2018-07-05T06:30:20.540Z,75.82
2018-07-05T06:31:20.683Z,76.59
2018-07-05T06:32:20.847Z,76.59
2018-07-05T06:33:20.982Z,76.68
2018-07-05T06:34:21.123Z,76.50
2018-07-05T06:35:21.271Z,76.10
2018-07-05T06:36:21.419Z,76.40
2018-07-05T06:37:21.554Z,76.10
2018-07-05T06:38:21.702Z,76.10
2018-07-05T06:39:21.848Z,75.92
2018-07-05T06:40:21.985Z,76.20
2018-07-05T06:41:22.124Z,75.92
2018-07-05T06:42:22.270Z,76.43
2018-07-05T06:43:22.433Z,76.01
2018-07-05T06:44:22.573Z,75.57
2018-07-05T06:45:22.742Z,74.89
2018-07-05T06:46:22.881Z,75.57
2018-07-05T06:47:23.036Z,74.99
2018-07-05T06:48:23.186Z,74.89
2018-07-05T06:49:23.369Z,75.27
2018-07-05T06:50:23.464Z,74.69
2018-07-05T06:51:23.629Z,75.27
2018-07-05T06:52:23.770Z,75.47
2018-07-05T06:53:23.910Z,74.89
2018-07-05T06:54:24.052Z,74.69
2018-07-05T06:55:24.203Z,74.51
2018-07-05T06:56:24.326Z,73.77
2018-07-05T06:57:24.463Z,74.06
2018-07-05T06:58:24.606Z,75.31
2018-07-05T06:59:24.751Z,74.83
2018-07-05T07:00:24.883Z,74.83
2018-07-05T07:01:25.029Z,73.86
2018-07-05T07:02:25.167Z,74.44
2018-07-05T07:03:25.344Z,74.64
2018-07-05T07:04:25.480Z,74.16
2018-07-05T07:05:25.625Z,73.48
2018-07-05T07:06:25.761Z,73.19
2018-07-05T07:07:25.919Z,73.22
2018-07-05T07:08:26.053Z,72.90
2018-07-05T07:09:26.200Z,73.71
2018-07-05T07:10:26.360Z,73.19
2018-07-05T07:11:26.496Z,73.28
2018-07-05T07:12:26.648Z,72.45
2018-07-05T07:13:26.779Z,72.84
2018-07-05T07:14:26.941Z,72.64
2018-07-05T07:15:27.082Z,72.06
2018-07-05T07:16:27.229Z,72.26
2018-07-05T07:17:27.390Z,72.74
2018-07-05T07:18:27.532Z,72.06
2018-07-05T07:19:27.676Z,72.00
2018-07-05T07:20:28.807Z,71.78
2018-07-05T07:21:28.012Z,72.06
2018-07-05T07:22:28.121Z,71.62
2018-07-05T07:23:28.410Z,72.00
2018-07-05T07:24:28.393Z,71.33
2018-07-05T07:25:28.514Z,71.52
2018-07-05T07:26:28.666Z,71.72
2018-07-05T07:27:28.808Z,71.81
2018-07-05T07:28:28.947Z,72.00
2018-07-05T07:29:29.083Z,71.62
2018-07-05T07:30:29.225Z,70.68
2018-07-05T07:31:29.466Z,70.56
2018-07-05T07:32:29.508Z,70.75
2018-07-05T07:33:29.649Z,70.56
2018-07-05T07:34:29.795Z,70.94
2018-07-05T07:35:29.941Z,70.65
2018-07-05T07:36:30.077Z,70.40
2018-07-05T07:37:30.241Z,70.68
2018-07-05T07:38:30.359Z,70.68
2018-07-05T07:39:30.504Z,69.62
2018-07-05T07:40:30.636Z,69.72
2018-07-05T07:41:30.787Z,70.10
2018-07-05T07:42:30.941Z,70.30
2018-07-05T07:43:31.081Z,70.20
2018-07-05T07:44:31.224Z,69.82
2018-07-05T07:45:31.466Z,70.34
2018-07-05T07:46:31.516Z,70.01
2018-07-05T07:47:31.655Z,69.95
2018-07-05T07:48:31.795Z,70.14
2018-07-05T07:49:31.944Z,70.14
2018-07-05T07:50:32.087Z,70.24
2018-07-05T07:51:32.265Z,70.14
2018-07-05T07:52:32.404Z,69.37
2018-07-05T07:53:32.552Z,69.17
2018-07-05T07:54:32.707Z,69.46
2018-07-05T07:55:32.844Z,69.08
2018-07-05T07:56:33.042Z,68.98
2018-07-05T07:57:33.185Z,68.79
2018-07-05T07:58:33.437Z,69.56
2018-07-05T07:59:33.451Z,69.08
2018-07-05T08:00:33.593Z,68.88
2018-07-05T08:01:33.738Z,69.31
2018-07-05T08:02:33.922Z,68.63
2018-07-05T08:03:34.065Z,69.11
2018-07-05T08:04:34.207Z,68.33
2018-07-05T08:05:34.356Z,68.24
2018-07-05T08:06:34.502Z,68.91
2018-07-05T08:07:35.241Z,68.43
2018-07-05T08:08:34.795Z,68.82
2018-07-05T08:09:34.931Z,68.73
2018-07-05T08:10:35.759Z,68.53
2018-07-05T08:11:35.166Z,68.24
2018-07-05T08:12:35.319Z,68.05
2018-07-05T08:13:35.463Z,67.85
2018-07-05T08:14:35.608Z,67.88
2018-07-05T08:15:35.750Z,67.85
2018-07-05T08:16:35.891Z,67.98
2018-07-05T08:17:36.038Z,67.88
2018-07-05T08:18:36.182Z,67.69
2018-07-05T08:19:36.322Z,67.21
2018-07-05T08:20:36.473Z,67.21
2018-07-05T08:21:36.615Z,66.72
2018-07-05T08:22:36.753Z,67.11
2018-07-05T08:23:36.893Z,65.66
2018-07-05T08:24:37.042Z,66.82
2018-07-05T08:25:37.181Z,66.53
2018-07-05T08:26:37.333Z,66.72
2018-07-05T08:27:37.475Z,66.82
2018-07-05T08:28:37.619Z,66.72
2018-07-05T08:29:37.762Z,66.34
2018-07-05T08:30:37.905Z,65.69
2018-07-05T08:31:38.049Z,66.27
2018-07-05T08:32:38.187Z,66.47
2018-07-05T08:33:38.335Z,65.79
2018-07-05T08:34:38.478Z,65.59
2018-07-05T08:35:38.616Z,65.79
2018-07-05T08:36:38.756Z,65.72
2018-07-05T08:37:38.903Z,65.34
2018-07-05T08:38:39.042Z,64.17
2018-07-05T08:39:39.187Z,64.17
2018-07-05T08:40:39.334Z,63.49
2018-07-05T08:41:39.467Z,64.17
2018-07-05T08:42:39.616Z,63.78
2018-07-05T08:43:39.757Z,63.10
2018-07-05T08:44:39.905Z,63.10
2018-07-05T08:45:40.064Z,64.07
2018-07-05T08:46:40.207Z,63.59
2018-07-05T08:47:40.353Z,64.37
2018-07-05T08:48:40.496Z,63.78
2018-07-05T08:49:40.646Z,63.40
2018-07-05T08:50:40.789Z,63.49
2018-07-05T08:51:40.931Z,62.72
2018-07-05T08:52:41.083Z,62.62
2018-07-05T08:53:41.228Z,61.88
2018-07-05T08:54:41.372Z,62.36
2018-07-05T08:55:41.519Z,61.98
2018-07-05T08:56:41.659Z,61.98
2018-07-05T08:57:41.802Z,61.88
2018-07-05T08:58:41.954Z,61.78
2018-07-05T08:59:42.099Z,62.75
2018-07-05T09:00:42.235Z,61.42
2018-07-05T09:01:42.383Z,60.64
2018-07-05T09:02:42.526Z,60.74
2018-07-05T09:03:42.693Z,60.35
2018-07-05T09:04:42.831Z,60.55
2018-07-05T09:05:42.990Z,60.45
2018-07-05T09:06:43.140Z,61.07
2018-07-05T09:07:43.315Z,60.28
2018-07-05T09:08:43.457Z,60.28
2018-07-05T09:09:43.598Z,59.80
2018-07-05T09:10:43.738Z,59.61
2018-07-05T09:11:43.893Z,59.51
2018-07-05T09:12:44.037Z,58.25
2018-07-05T09:13:44.196Z,58.05
2018-07-05T09:14:44.342Z,58.25
2018-07-05T09:15:44.485Z,58.34
2018-07-05T09:16:44.627Z,58.64
2018-07-05T09:17:44.968Z,57.18
2018-07-05T09:18:44.940Z,56.43
2018-07-05T09:19:45.089Z,56.82
2018-07-05T09:20:45.225Z,55.94
2018-07-05T09:21:45.396Z,55.55
2018-07-05T09:22:45.539Z,56.43
2018-07-05T09:23:45.728Z,56.72
2018-07-05T09:24:45.832Z,56.92
2018-07-05T09:25:45.968Z,56.72
2018-07-05T09:26:46.158Z,56.43
2018-07-05T09:27:46.261Z,56.14
2018-07-05T09:28:46.408Z,56.24
2018-07-05T09:29:46.583Z,56.72
2018-07-05T09:30:46.723Z,57.01
2018-07-05T09:31:46.873Z,56.56
2018-07-05T09:32:47.062Z,56.46
2018-07-05T09:33:47.191Z,55.98
2018-07-05T09:34:47.333Z,55.29
2018-07-05T09:35:47.476Z,54.71
2018-07-05T09:36:47.653Z,54.44
2018-07-05T09:37:47.793Z,55.13
2018-07-05T09:38:47.936Z,54.74
2018-07-05T09:39:48.128Z,54.05
2018-07-05T09:40:48.273Z,53.38
2018-07-05T09:41:48.438Z,53.77
2018-07-05T09:42:48.568Z,54.18
2018-07-05T09:43:48.730Z,53.57
2018-07-05T09:44:48.968Z,54.08
2018-07-05T09:45:48.997Z,53.77
2018-07-05T09:46:49.139Z,53.38
2018-07-05T09:47:49.298Z,53.40
2018-07-05T09:48:49.442Z,54.38
2018-07-05T09:49:49.582Z,53.20
2018-07-05T09:50:49.728Z,52.72
2018-07-05T09:51:49.908Z,53.30
2018-07-05T09:52:50.093Z,53.01
2018-07-05T09:53:50.195Z,52.23
2018-07-05T09:54:50.336Z,52.43
2018-07-05T09:55:51.389Z,52.53
2018-07-05T09:56:50.684Z,52.53
2018-07-05T09:57:50.825Z,52.53
2018-07-05T09:58:51.899Z,51.75
2018-07-05T09:59:51.203Z,52.33
2018-07-05T10:00:51.333Z,50.99
2018-07-05T10:01:51.478Z,50.70
2018-07-05T10:02:51.618Z,50.99
2018-07-05T10:03:51.865Z,50.99
2018-07-05T10:04:51.926Z,50.99
2018-07-05T10:05:52.092Z,50.90
2018-07-05T10:06:52.237Z,50.60
2018-07-05T10:07:52.448Z,50.80
2018-07-05T10:08:52.528Z,51.19
2018-07-05T10:09:52.674Z,51.19
2018-07-05T10:10:52.831Z,52.16
2018-07-05T10:11:52.973Z,51.58
2018-07-05T10:12:53.114Z,50.90
2018-07-05T10:13:53.404Z,51.19
2018-07-05T10:14:53.431Z,50.90
2018-07-05T10:15:53.573Z,50.12
2018-07-05T10:16:53.724Z,50.60
2018-07-05T10:17:53.886Z,50.80
2018-07-05T10:18:54.030Z,49.44
2018-07-05T10:19:54.181Z,49.73
2018-07-05T10:20:54.326Z,48.85
2018-07-05T10:21:54.471Z,48.00
2018-07-05T10:22:54.617Z,47.90
2018-07-05T10:23:54.766Z,47.71
2018-07-05T10:24:54.908Z,46.44
2018-07-05T10:25:55.061Z,46.34
2018-07-05T10:26:55.231Z,46.34
2018-07-05T10:27:55.348Z,46.44
2018-07-05T10:28:55.504Z,46.64
2018-07-05T10:29:55.661Z,46.34
2018-07-05T10:30:55.800Z,45.95
2018-07-05T10:31:55.954Z,46.64
2018-07-05T10:32:56.197Z,47.22
2018-07-05T10:33:56.221Z,47.22
2018-07-05T10:34:56.373Z,46.25
2018-07-05T10:35:56.517Z,46.08
2018-07-05T10:36:56.665Z,45.78
2018-07-05T10:37:57.613Z,45.49
2018-07-05T10:38:56.916Z,45.59
2018-07-05T10:39:57.072Z,44.90
2018-07-05T10:40:57.266Z,44.81
2018-07-05T10:41:57.421Z,45.00
2018-07-05T10:42:57.555Z,44.23
2018-07-05T10:43:57.703Z,44.23
2018-07-05T10:44:57.847Z,43.74
2018-07-05T10:45:58.003Z,43.84
2018-07-05T10:46:58.155Z,43.15
2018-07-05T10:47:58.292Z,43.08
2018-07-05T10:48:58.434Z,43.08
2018-07-05T10:49:58.582Z,43.27
2018-07-05T10:50:58.729Z,43.57
2018-07-05T10:51:58.882Z,42.98
2018-07-05T10:52:59.025Z,43.37
2018-07-05T10:53:59.177Z,43.27
2018-07-05T10:54:59.320Z,42.96
2018-07-05T10:55:59.476Z,43.18
2018-07-05T10:56:59.621Z,42.98
2018-07-05T10:57:59.771Z,43.37
2018-07-05T10:58:59.919Z,43.18
2018-07-05T11:00:00.051Z,42.69
2018-07-05T11:01:00.251Z,42.49
2018-07-05T11:02:00.374Z,42.49
2018-07-05T11:03:00.519Z,41.52
2018-07-05T11:04:00.662Z,42.10
2018-07-05T11:05:00.816Z,42.69
2018-07-05T11:06:00.956Z,42.00
2018-07-05T11:07:01.107Z,42.18
2018-07-05T11:08:01.474Z,42.57
2018-07-05T11:09:01.477Z,43.15
2018-07-05T11:10:01.627Z,43.15
2018-07-05T11:11:01.773Z,43.64
2018-07-05T11:12:01.941Z,43.15
2018-07-05T11:13:02.087Z,43.18
2018-07-05T11:14:02.250Z,42.69
2018-07-05T11:15:02.409Z,42.66
2018-07-05T11:17:35.611Z,42.59
2018-07-05T11:18:35.765Z,41.61
2018-07-05T11:19:35.903Z,41.91
2018-07-05T11:20:36.046Z,41.99
2018-07-05T11:21:36.199Z,41.79
2018-07-05T11:22:36.342Z,42.28
2018-07-05T11:23:36.500Z,42.28
2018-07-05T11:24:36.643Z,42.98
2018-07-05T11:25:36.788Z,42.59
2018-07-05T11:26:36.936Z,41.13
2018-07-05T11:27:37.081Z,41.61
2018-07-05T11:28:37.235Z,41.22
2018-07-05T11:29:37.383Z,40.73
2018-07-05T11:30:37.528Z,40.35
2018-07-05T11:31:37.666Z,40.35
2018-07-05T11:32:37.820Z,40.93
2018-07-05T11:33:37.976Z,40.73
2018-07-05T11:34:38.130Z,41.13
2018-07-05T11:35:38.274Z,41.13
2018-07-05T11:36:38.418Z,41.25
2018-07-05T11:37:38.566Z,41.25
2018-07-05T11:38:38.708Z,40.47
2018-07-05T11:39:38.857Z,39.10
2018-07-05T11:40:38.999Z,39.12
2018-07-05T11:41:39.153Z,39.98
2018-07-05T11:42:39.307Z,39.22
2018-07-05T11:43:39.443Z,38.14
2018-07-05T11:44:39.590Z,38.14
2018-07-05T11:45:39.739Z,38.43
2018-07-05T11:46:39.888Z,39.02
2018-07-05T11:47:40.032Z,39.41
2018-07-05T11:48:40.177Z,39.51
2018-07-05T11:49:40.327Z,39.12
2018-07-05T11:50:40.473Z,38.14
2018-07-05T11:51:40.623Z,38.82
2018-07-05T11:52:40.773Z,39.22
2018-07-05T11:53:40.928Z,40.00
2018-07-05T11:54:41.112Z,38.63
2018-07-05T11:55:41.242Z,38.24
2018-07-05T11:56:41.401Z,39.12
2018-07-05T11:57:41.556Z,38.63
2018-07-05T11:58:41.711Z,38.53
2018-07-05T11:59:41.856Z,38.82
2018-07-05T12:00:42.003Z,39.70
2018-07-05T12:01:42.151Z,38.24
2018-07-05T12:02:42.292Z,37.85
2018-07-05T12:03:42.448Z,38.26
2018-07-05T12:04:42.587Z,39.33
2018-07-05T12:05:42.746Z,39.23
2018-07-05T12:06:42.916Z,37.96
2018-07-05T12:07:43.055Z,37.48
2018-07-05T12:08:43.278Z,38.75
2018-07-05T12:09:43.405Z,40.89
2018-07-05T12:10:43.565Z,41.28
2018-07-05T12:11:43.708Z,43.26
2018-07-05T12:12:43.853Z,43.04
2018-07-05T12:13:44.003Z,43.04
2018-07-05T12:14:44.179Z,43.53
2018-07-05T12:15:44.324Z,43.82
2018-07-05T12:16:44.463Z,43.63
2018-07-05T12:17:44.609Z,42.65
2018-07-05T12:18:44.782Z,44.41
2018-07-05T12:19:44.976Z,44.41
2018-07-05T12:20:45.123Z,44.51
2018-07-05T12:21:45.272Z,43.24
2018-07-05T12:22:45.444Z,44.38
2018-07-05T12:23:45.588Z,45.19
2018-07-05T12:24:45.738Z,44.70
2018-07-05T12:25:45.883Z,45.39
2018-07-05T12:26:46.089Z,44.38
2018-07-05T12:27:46.204Z,44.41
2018-07-05T12:28:46.354Z,45.48
2018-07-05T12:29:46.504Z,45.00
2018-07-05T12:30:46.656Z,45.29
2018-07-05T12:31:46.801Z,45.68
2018-07-05T12:32:46.952Z,46.07
2018-07-05T12:33:47.096Z,46.17
2018-07-05T12:34:47.287Z,46.17
2018-07-05T12:35:47.436Z,46.24
2018-07-05T12:36:47.584Z,45.85
2018-07-05T12:37:47.729Z,45.65
2018-07-05T12:38:47.908Z,46.14
2018-07-05T12:39:48.047Z,46.24
2018-07-05T12:40:48.198Z,46.80
2018-07-05T12:41:48.349Z,47.09
2018-07-05T12:42:48.531Z,47.49
2018-07-05T12:43:48.660Z,47.85
2018-07-05T12:44:48.817Z,48.34
2018-07-05T12:45:49.010Z,49.00
2018-07-05T12:46:49.303Z,49.49
2018-07-05T12:47:49.320Z,50.07
2018-07-05T12:48:49.470Z,50.85
2018-07-05T12:49:49.617Z,50.95
2018-07-05T12:50:49.796Z,51.63
2018-07-05T12:51:49.949Z,52.48
2018-07-05T12:52:50.088Z,53.94
2018-07-05T12:53:50.250Z,54.11
2018-07-05T12:54:50.398Z,54.21
2018-07-05T12:55:50.544Z,55.18
2018-07-05T12:56:50.688Z,55.35
2018-07-05T12:57:50.832Z,55.54